Time;durP1;ratioP1;P1;durP2;ratioP2;P2;SDS_P1;SDS_P2;PMS_P1;PMS_P2;Temp;Humidity;BMP_temperature;BMP_pressure;BME280_temperature;BME280_humidity;BME280_pressure;Samples;Min_cycle;Max_cycle;Signal;HPM_P1;HPM_P2
2021/12/01 00:01:21;;;;;;;908.90;839.83;;;11.50;99.90;;;;;;4883861;29;20455;-83
2021/12/01 00:03:48;;;;;;;907.67;838.77;;;11.50;99.90;;;;;;4883317;29;20467;-83
2021/12/01 00:06:14;;;;;;;916.70;848.30;;;11.60;99.90;;;;;;4883069;29;20845;-83
2021/12/01 00:08:42;;;;;;;915.07;850.07;;;11.50;99.90;;;;;;4881410;29;20471;-83
2021/12/01 00:11:09;;;;;;;903.37;839.37;;;11.40;99.90;;;;;;4873741;29;20491;-83
2021/12/01 00:13:36;;;;;;;890.33;830.50;;;11.60;99.90;;;;;;4883525;29;20859;-83
2021/12/01 00:16:03;;;;;;;878.30;820.50;;;11.40;99.90;;;;;;4885046;29;20470;-83
2021/12/01 00:18:30;;;;;;;873.60;818.03;;;11.50;99.90;;;;;;4883457;29;20483;-84
2021/12/01 00:20:58;;;;;;;902.00;843.87;;;11.60;99.90;;;;;;4885014;29;20464;-83
2021/12/01 00:23:25;;;;;;;940.40;876.57;;;11.50;99.90;;;;;;4884312;29;20462;-83
2021/12/01 00:25:53;;;;;;;933.50;871.87;;;11.50;99.90;;;;;;4869261;29;20467;-83
2021/12/01 00:28:20;;;;;;;894.97;837.50;;;11.50;99.90;;;;;;4868345;29;20484;-83
2021/12/01 00:30:47;;;;;;;905.00;845.83;;;11.60;99.90;;;;;;4868768;29;20526;-83
2021/12/01 00:33:17;;;;;;;917.83;857.40;;;11.60;99.90;;;;;;4867925;29;20559;-83
2021/12/01 00:35:44;;;;;;;875.17;821.10;;;11.50;99.90;;;;;;4869302;29;20534;-83
2021/12/01 00:38:11;;;;;;;879.43;825.90;;;11.50;99.90;;;;;;4871474;29;20476;-83
2021/12/01 00:40:38;;;;;;;881.63;827.50;;;11.50;99.90;;;;;;4873914;29;20460;-83
2021/12/01 00:43:06;;;;;;;892.80;837.53;;;11.50;99.90;;;;;;4873085;29;20467;-83
2021/12/01 00:45:33;;;;;;;899.10;843.90;;;11.50;99.90;;;;;;4872432;29;20461;-83
2021/12/01 00:48:00;;;;;;;913.50;855.47;;;11.50;99.90;;;;;;4871700;29;20480;-83
2021/12/01 00:50:32;;;;;;;913.13;854.37;;;11.40;99.90;;;;;;4871111;29;20488;-83
2021/12/01 00:53:01;;;;;;;914.77;855.33;;;11.40;99.90;;;;;;4871181;29;20464;-83
2021/12/01 00:55:28;;;;;;;911.47;851.30;;;11.50;99.90;;;;;;4870026;29;20468;-83
2021/12/01 00:57:55;;;;;;;916.60;856.93;;;11.50;99.90;;;;;;4873127;29;20495;-83
2021/12/01 01:00:26;;;;;;;924.30;862.90;;;11.40;99.90;;;;;;4871854;29;20521;-83
2021/12/01 01:02:56;;;;;;;912.90;854.13;;;11.40;99.90;;;;;;4871083;29;20469;-83
2021/12/01 01:05:23;;;;;;;901.30;843.37;;;11.30;99.90;;;;;;4871972;29;20493;-83
2021/12/01 01:07:50;;;;;;;895.27;838.50;;;11.30;99.90;;;;;;4872409;29;20484;-83
2021/12/01 01:10:34;;;;;;;883.23;827.93;;;11.30;99.90;;;;;;4872128;29;20723;-83
2021/12/01 01:18:37;;;;;;;870.13;817.20;;;11.20;99.90;;;;;;4873256;29;20472;-83
2021/12/01 01:21:05;;;;;;;818.43;772.13;;;11.20;99.90;;;;;;4872873;29;20869;-83
2021/12/01 01:23:32;;;;;;;763.10;723.20;;;11.10;99.90;;;;;;4873001;29;20464;-83
2021/12/01 01:26:00;;;;;;;814.33;768.00;;;11.10;99.90;;;;;;4872202;29;20466;-83
2021/12/01 01:28:27;;;;;;;813.20;767.43;;;11.10;99.90;;;;;;4872655;29;20485;-83
2021/12/01 01:30:55;;;;;;;780.23;735.73;;;11.00;99.90;;;;;;4871985;29;20484;-83
2021/12/01 01:33:22;;;;;;;714.00;677.87;;;11.00;99.90;;;;;;4873104;29;20484;-83
2021/12/01 01:35:50;;;;;;;712.37;674.87;;;11.00;99.90;;;;;;4873430;29;20477;-83
2021/12/01 01:38:17;;;;;;;722.17;683.87;;;10.90;99.90;;;;;;4873358;29;20484;-84
2021/12/01 01:40:43;;;;;;;685.53;650.50;;;10.90;99.90;;;;;;4874042;29;20468;-83
2021/12/01 01:43:10;;;;;;;624.90;596.50;;;10.90;99.90;;;;;;4872945;29;20460;-83
2021/12/01 01:45:37;;;;;;;602.60;577.00;;;10.80;99.90;;;;;;4873668;29;20468;-83
2021/12/01 01:48:10;;;;;;;579.33;555.73;;;10.80;99.90;;;;;;4873890;29;20488;-83
2021/12/01 01:50:41;;;;;;;585.07;561.77;;;10.80;99.90;;;;;;4872549;29;20491;-83
2021/12/01 01:53:12;;;;;;;538.03;517.37;;;10.70;99.90;;;;;;4872632;29;20531;-83
2021/12/01 01:55:41;;;;;;;480.63;463.33;;;10.70;99.90;;;;;;4872946;29;20545;-83
2021/12/01 01:58:08;;;;;;;502.20;483.83;;;10.70;99.90;;;;;;4871969;29;20571;-83
2021/12/01 02:00:44;;;;;;;460.70;444.50;;;10.70;99.90;;;;;;4872684;29;20460;-83
2021/12/01 02:03:13;;;;;;;432.97;417.87;;;10.60;99.90;;;;;;4873402;29;20961;-83
2021/12/01 02:05:40;;;;;;;425.87;410.93;;;10.50;99.90;;;;;;4873395;29;20485;-83
2021/12/01 02:08:15;;;;;;;428.93;413.77;;;10.50;99.90;;;;;;4872378;29;20481;-84
2021/12/01 02:10:42;;;;;;;392.93;379.53;;;10.50;99.90;;;;;;4871869;29;20493;-83
2021/12/01 02:13:09;;;;;;;371.83;359.43;;;10.50;99.90;;;;;;4872144;29;20460;-83
2021/12/01 02:15:36;;;;;;;440.37;424.67;;;10.40;99.90;;;;;;4872315;29;20464;-83
2021/12/01 02:18:03;;;;;;;403.30;389.30;;;10.50;99.90;;;;;;4872922;29;20481;-82
2021/12/01 02:20:31;;;;;;;471.10;454.03;;;10.40;99.90;;;;;;4872662;29;20837;-83
2021/12/01 02:23:00;;;;;;;517.80;498.07;;;10.40;99.90;;;;;;4874017;29;20850;-83
2021/12/01 02:25:27;;;;;;;527.17;507.00;;;10.50;99.90;;;;;;4884674;29;20455;-83
2021/12/01 02:27:54;;;;;;;401.97;387.97;;;10.40;99.90;;;;;;4891334;29;20866;-83
2021/12/01 02:30:21;;;;;;;498.83;480.07;;;10.40;99.90;;;;;;4889930;29;20471;-83
2021/12/01 02:32:47;;;;;;;337.20;325.87;;;10.40;99.90;;;;;;4889246;29;20465;-84
2021/12/01 02:35:14;;;;;;;302.00;292.10;;;10.30;99.90;;;;;;4890507;29;20834;-83
2021/12/01 02:37:42;;;;;;;249.30;241.33;;;10.30;99.90;;;;;;4890031;29;20487;-84
2021/12/01 02:40:10;;;;;;;228.43;220.83;;;10.30;99.90;;;;;;4889986;29;20470;-83
2021/12/01 02:42:37;;;;;;;218.57;211.37;;;10.10;99.90;;;;;;4889861;29;20464;-83
2021/12/01 02:45:05;;;;;;;217.97;210.97;;;10.20;99.90;;;;;;4889312;29;20463;-83
2021/12/01 02:47:31;;;;;;;234.63;227.13;;;10.10;99.90;;;;;;4889274;29;20476;-84
2021/12/01 02:49:58;;;;;;;227.80;220.03;;;10.20;99.90;;;;;;4888766;29;20486;-83
2021/12/01 02:52:25;;;;;;;191.43;185.17;;;10.10;99.90;;;;;;4888773;29;20491;-83
2021/12/01 02:54:54;;;;;;;160.70;155.30;;;10.00;99.90;;;;;;4889584;29;20460;-83
2021/12/01 02:57:21;;;;;;;190.33;183.80;;;10.10;99.90;;;;;;4888930;29;20491;-83
2021/12/01 02:59:48;;;;;;;218.00;210.87;;;10.00;99.90;;;;;;4888569;29;20471;-83
2021/12/01 03:02:16;;;;;;;128.87;124.37;;;10.00;99.90;;;;;;4885075;29;20464;-84
2021/12/01 03:04:43;;;;;;;102.33;98.43;;;10.10;99.90;;;;;;4876712;29;20456;-83
2021/12/01 03:07:12;;;;;;;106.40;102.63;;;10.00;99.90;;;;;;4888746;29;20853;-84
2021/12/01 03:09:38;;;;;;;71.80;68.70;;;10.00;99.90;;;;;;4877849;29;20456;-84
2021/12/01 03:12:08;;;;;;;70.20;67.30;;;9.90;99.90;;;;;;4887280;29;20490;-83
2021/12/01 03:14:34;;;;;;;63.60;60.80;;;10.00;99.90;;;;;;4889153;29;20471;-83
2021/12/01 03:17:01;;;;;;;59.70;57.20;;;10.00;99.90;;;;;;4888069;29;20480;-83
2021/12/01 03:19:28;;;;;;;34.30;32.40;;;10.00;99.90;;;;;;4886721;29;20960;-84
2021/12/01 03:21:54;;;;;;;38.30;36.40;;;10.00;99.90;;;;;;4878443;29;20539;-83
2021/12/01 03:24:24;;;;;;;40.10;38.00;;;9.90;99.90;;;;;;4868254;29;20468;-85
2021/12/01 03:26:59;;;;;;;48.40;45.83;;;10.00;99.90;;;;;;4868802;29;20476;-86
2021/12/01 03:29:27;;;;;;;49.77;47.47;;;9.90;99.90;;;;;;4869500;29;20827;-84
2021/12/01 03:31:54;;;;;;;45.43;43.33;;;9.90;99.90;;;;;;4884663;29;20487;-84
2021/12/01 03:34:22;;;;;;;48.50;46.13;;;9.90;99.90;;;;;;4887779;29;20463;-84
2021/12/01 03:36:49;;;;;;;72.53;68.77;;;9.90;99.90;;;;;;4887400;29;21021;-84
2021/12/01 03:39:16;;;;;;;93.37;89.57;;;9.90;99.90;;;;;;4887790;29;20949;-85
2021/12/01 03:41:43;;;;;;;118.80;114.20;;;9.90;99.90;;;;;;4888229;29;20467;-84
2021/12/01 03:44:10;;;;;;;116.60;112.00;;;9.80;99.90;;;;;;4887604;29;20459;-83
2021/12/01 03:46:38;;;;;;;110.83;106.33;;;9.80;99.90;;;;;;4889767;29;20471;-84
2021/12/01 03:49:04;;;;;;;126.57;121.87;;;9.80;99.90;;;;;;4889734;29;20455;-84
2021/12/01 03:51:31;;;;;;;125.40;120.83;;;9.80;99.90;;;;;;4889165;29;20518;-84
2021/12/01 03:53:58;;;;;;;130.47;125.80;;;9.70;99.90;;;;;;4887994;29;20532;-84
2021/12/01 03:56:25;;;;;;;151.87;146.40;;;9.60;99.90;;;;;;4888450;29;20467;-84
2021/12/01 03:58:53;;;;;;;169.47;163.30;;;9.70;99.90;;;;;;4875753;29;20936;-84
2021/12/01 04:01:20;;;;;;;149.33;143.97;;;9.60;99.90;;;;;;4870237;29;20467;-84
2021/12/01 04:03:49;;;;;;;149.80;144.40;;;9.60;99.90;;;;;;4869325;29;20464;-84
2021/12/01 04:06:16;;;;;;;138.37;133.00;;;9.60;99.90;;;;;;4868871;29;20461;-84
2021/12/01 04:08:43;;;;;;;177.07;170.87;;;9.60;99.90;;;;;;4868858;29;20484;-84
2021/12/01 04:11:10;;;;;;;208.20;200.60;;;9.60;99.90;;;;;;4869176;29;20496;-84
2021/12/01 04:13:36;;;;;;;172.80;166.67;;;9.60;99.90;;;;;;4872153;29;20460;-83
2021/12/01 04:16:04;;;;;;;197.10;190.03;;;9.50;99.90;;;;;;4873476;29;20468;-84
2021/12/01 04:18:31;;;;;;;182.47;175.77;;;9.50;99.90;;;;;;4873484;29;20480;-83
2021/12/01 04:20:59;;;;;;;165.77;159.67;;;9.50;99.90;;;;;;4874046;29;20462;-84
2021/12/01 04:23:26;;;;;;;176.07;169.50;;;9.50;99.90;;;;;;4872798;29;20461;-84
2021/12/01 04:25:53;;;;;;;166.30;160.20;;;9.40;99.90;;;;;;4873364;29;20492;-84
2021/12/01 04:28:20;;;;;;;142.47;137.23;;;9.40;99.90;;;;;;4873157;29;20480;-84
2021/12/01 04:30:46;;;;;;;139.37;134.40;;;9.30;99.90;;;;;;4873011;29;20460;-84
2021/12/01 04:33:13;;;;;;;120.70;116.30;;;9.30;99.90;;;;;;4872638;29;20460;-84
2021/12/01 04:35:40;;;;;;;126.90;121.87;;;9.30;99.90;;;;;;4872401;29;20463;-84
2021/12/01 04:38:08;;;;;;;134.27;129.33;;;9.20;99.90;;;;;;4873151;29;20482;-84
2021/12/01 04:40:35;;;;;;;104.80;100.83;;;9.20;99.90;;;;;;4872531;29;20468;-84
2021/12/01 04:43:02;;;;;;;93.90;90.10;;;9.20;99.90;;;;;;4871153;29;20456;-84
2021/12/01 04:45:31;;;;;;;108.30;104.20;;;9.20;99.90;;;;;;4871975;29;20536;-84
2021/12/01 04:47:58;;;;;;;103.27;99.27;;;9.10;99.90;;;;;;4874604;29;20483;-84
2021/12/01 04:50:28;;;;;;;85.47;82.07;;;9.20;99.90;;;;;;4872115;29;20467;-83
2021/12/01 04:52:57;;;;;;;92.30;88.87;;;9.20;99.90;;;;;;4874600;29;20480;-84
2021/12/01 04:55:26;;;;;;;87.23;83.77;;;9.10;99.90;;;;;;4874302;29;20460;-84
2021/12/01 04:57:53;;;;;;;61.30;58.80;;;9.00;99.90;;;;;;4879089;29;20486;-83
2021/12/01 05:00:22;;;;;;;69.03;66.20;;;9.00;99.90;;;;;;4891692;29;20459;-84
2021/12/01 05:02:49;;;;;;;50.57;48.43;;;9.10;99.90;;;;;;4892390;29;20503;-84
2021/12/01 05:05:16;;;;;;;53.83;51.43;;;9.00;99.90;;;;;;4892623;29;20482;-84
2021/12/01 05:07:43;;;;;;;30.33;28.83;;;9.00;99.90;;;;;;4892596;29;20483;-84
2021/12/01 05:10:10;;;;;;;36.83;35.23;;;8.90;99.90;;;;;;4892886;29;20459;-85
2021/12/01 05:12:42;;;;;;;36.60;35.00;;;8.90;99.90;;;;;;4891045;29;20486;-81
2021/12/01 05:15:11;;;;;;;35.20;33.53;;;8.90;99.90;;;;;;4891620;29;20495;-83
2021/12/01 05:17:38;;;;;;;26.83;25.53;;;8.90;99.90;;;;;;4890483;29;20486;-83
2021/12/01 05:20:07;;;;;;;31.53;30.03;;;8.90;99.90;;;;;;4892018;29;20475;-83
2021/12/01 05:22:34;;;;;;;20.60;19.50;;;8.80;99.90;;;;;;4894444;29;20844;-84
2021/12/01 05:25:01;;;;;;;32.60;31.17;;;8.90;99.90;;;;;;4893648;29;20455;-82
2021/12/01 05:27:30;;;;;;;33.63;32.10;;;8.80;99.90;;;;;;4889742;29;20476;-84
2021/12/01 05:29:58;;;;;;;42.03;40.33;;;8.70;99.90;;;;;;4888526;29;20492;-84
2021/12/01 05:32:30;;;;;;;44.47;42.73;;;8.70;99.90;;;;;;4888720;29;20486;-82
2021/12/01 05:34:57;;;;;;;61.13;58.73;;;8.60;99.90;;;;;;4890180;29;20531;-84
2021/12/01 05:37:23;;;;;;;68.87;66.37;;;8.60;99.90;;;;;;4890702;29;20859;-84
2021/12/01 05:39:50;;;;;;;80.20;77.40;;;8.40;99.90;;;;;;4888205;29;20466;-83
2021/12/01 05:42:17;;;;;;;124.67;120.37;;;8.40;99.90;;;;;;4889187;29;20455;-84
2021/12/01 05:44:45;;;;;;;111.30;107.50;;;8.40;99.90;;;;;;4888038;29;20534;-83
2021/12/01 05:47:13;;;;;;;134.17;129.67;;;8.30;99.90;;;;;;4888500;29;20479;-83
2021/12/01 05:49:44;;;;;;;101.30;97.90;;;8.30;99.90;;;;;;4889189;29;20448;-83
2021/12/01 05:52:11;;;;;;;115.40;111.60;;;8.30;99.90;;;;;;4889840;29;20574;-83
2021/12/01 05:54:39;;;;;;;147.00;142.20;;;8.30;99.90;;;;;;4888741;29;20467;-83
2021/12/01 05:57:08;;;;;;;140.07;135.47;;;8.40;99.90;;;;;;4888737;29;20479;-83
2021/12/01 05:59:35;;;;;;;140.90;136.30;;;8.30;99.90;;;;;;4870286;29;20468;-83
2021/12/01 06:02:02;;;;;;;143.40;138.60;;;8.30;99.90;;;;;;4870440;29;20460;-83
2021/12/01 06:04:30;;;;;;;145.00;140.00;;;8.30;99.90;;;;;;4870175;29;20470;-83
2021/12/01 06:06:57;;;;;;;141.37;136.67;;;8.30;99.90;;;;;;4868995;29;20484;-83
2021/12/01 06:09:24;;;;;;;130.03;125.77;;;8.20;99.90;;;;;;4873585;29;20464;-83
2021/12/01 06:11:52;;;;;;;102.67;99.23;;;8.30;99.90;;;;;;4884024;29;20482;-84
2021/12/01 06:14:19;;;;;;;88.93;85.93;;;8.40;99.90;;;;;;4874955;29;20468;-84
2021/12/01 06:16:47;;;;;;;98.93;95.60;;;8.20;99.90;;;;;;4874267;29;20463;-83
2021/12/01 06:19:14;;;;;;;96.47;93.27;;;8.30;99.90;;;;;;4875720;29;20469;-84
2021/12/01 06:21:42;;;;;;;84.13;81.27;;;8.30;99.90;;;;;;4874992;29;20454;-84
2021/12/01 06:24:08;;;;;;;51.63;49.73;;;8.30;99.90;;;;;;4875987;29;20485;-84
2021/12/01 06:26:35;;;;;;;35.73;34.33;;;8.30;99.90;;;;;;4875403;29;20463;-83
2021/12/01 06:29:02;;;;;;;45.20;43.43;;;8.30;99.90;;;;;;4876119;29;20519;-84
2021/12/01 06:31:29;;;;;;;37.73;36.00;;;8.10;99.90;;;;;;4871370;29;20463;-83
2021/12/01 06:33:58;;;;;;;37.90;36.30;;;8.10;99.90;;;;;;4872968;29;20460;-84
2021/12/01 06:36:25;;;;;;;38.37;36.97;;;8.10;99.90;;;;;;4872244;29;20460;-83
2021/12/01 06:38:53;;;;;;;24.30;23.13;;;8.00;99.90;;;;;;4874792;29;20491;-83
2021/12/01 06:41:20;;;;;;;23.87;22.77;;;8.20;99.90;;;;;;4874835;29;20875;-83
2021/12/01 06:43:46;;;;;;;20.40;19.50;;;8.10;99.90;;;;;;4874012;29;20460;-83
2021/12/01 06:46:13;;;;;;;11.53;10.93;;;8.20;99.90;;;;;;4873803;29;20469;-83
2021/12/01 06:48:40;;;;;;;8.43;7.93;;;8.40;99.90;;;;;;4875261;29;20786;-83
2021/12/01 06:51:07;;;;;;;8.33;7.53;;;8.60;99.90;;;;;;4874009;29;20464;-83
2021/12/01 06:53:33;;;;;;;10.33;9.73;;;8.80;99.90;;;;;;4874946;29;20492;-85
2021/12/01 06:56:01;;;;;;;9.60;9.00;;;8.90;99.90;;;;;;4881233;29;20962;-84
2021/12/01 06:58:28;;;;;;;9.30;8.70;;;8.90;99.90;;;;;;4880932;29;20488;-83
2021/12/01 07:00:55;;;;;;;7.93;7.27;;;9.00;99.90;;;;;;4871643;29;20470;-84
2021/12/01 07:03:25;;;;;;;9.63;9.03;;;9.00;99.90;;;;;;4872988;29;20465;-84
2021/12/01 07:05:52;;;;;;;14.07;13.17;;;9.00;99.90;;;;;;4873068;29;20488;-85
2021/12/01 07:08:18;;;;;;;13.37;12.57;;;9.10;99.90;;;;;;4874276;29;20772;-84
2021/12/01 07:10:45;;;;;;;11.87;11.03;;;9.10;99.90;;;;;;4873934;29;20467;-85
2021/12/01 07:13:13;;;;;;;9.30;8.50;;;9.10;99.90;;;;;;4873638;29;20488;-84
2021/12/01 07:15:40;;;;;;;8.10;7.50;;;9.20;99.90;;;;;;4874188;29;20555;-84
2021/12/01 07:18:08;;;;;;;5.90;5.50;;;9.20;99.90;;;;;;4873152;29;20494;-85
2021/12/01 07:20:35;;;;;;;5.57;5.03;;;9.30;99.90;;;;;;4873472;29;20460;-84
2021/12/01 07:23:03;;;;;;;4.73;3.93;;;9.30;99.90;;;;;;4875347;29;20457;-84
2021/12/01 07:25:30;;;;;;;4.73;4.33;;;9.50;99.90;;;;;;4874718;29;20452;-84
2021/12/01 07:27:57;;;;;;;7.00;4.90;;;9.50;99.90;;;;;;4873319;29;20492;-85
2021/12/01 07:30:25;;;;;;;6.00;5.23;;;9.50;99.90;;;;;;4875713;29;20832;-83
2021/12/01 07:32:52;;;;;;;4.60;4.10;;;9.50;99.90;;;;;;4874094;29;20488;-84
2021/12/01 07:35:19;;;;;;;10.27;7.43;;;9.50;99.90;;;;;;4874655;29;20463;-83
2021/12/01 07:37:46;;;;;;;12.83;12.03;;;9.50;99.90;;;;;;4873616;29;20474;-84
2021/12/01 07:40:13;;;;;;;9.00;8.40;;;9.50;99.90;;;;;;4873885;29;20764;-83
2021/12/01 07:42:40;;;;;;;10.70;9.90;;;9.40;99.90;;;;;;4872888;29;20922;-83
2021/12/01 07:45:08;;;;;;;10.73;9.97;;;9.40;99.90;;;;;;4873617;29;20535;-83
2021/12/01 07:47:36;;;;;;;7.97;7.47;;;9.40;99.90;;;;;;4874323;29;21072;-84
2021/12/01 07:50:04;;;;;;;10.70;10.10;;;9.40;99.90;;;;;;4874498;29;20460;-84
2021/12/01 07:52:31;;;;;;;13.10;12.30;;;9.30;99.90;;;;;;4873786;29;20487;-85
2021/12/01 07:54:58;;;;;;;11.73;11.03;;;9.40;99.90;;;;;;4874599;29;20468;-84
2021/12/01 07:57:24;;;;;;;7.73;7.13;;;9.40;99.90;;;;;;4875749;29;20480;-84
2021/12/01 07:59:51;;;;;;;8.80;8.30;;;9.50;99.90;;;;;;4892479;29;20475;-84
2021/12/01 08:02:18;;;;;;;7.43;6.80;;;9.50;99.90;;;;;;4892823;29;20462;-84
2021/12/01 08:04:47;;;;;;;6.63;6.13;;;9.60;99.90;;;;;;4888949;29;20491;-85
2021/12/01 08:07:13;;;;;;;6.17;5.57;;;9.60;99.90;;;;;;4892680;29;20475;-84
2021/12/01 08:09:40;;;;;;;6.07;5.43;;;9.60;99.90;;;;;;4892566;29;20487;-84
2021/12/01 08:12:11;;;;;;;5.63;5.10;;;9.60;99.90;;;;;;4884487;29;20459;-82
2021/12/01 08:14:38;;;;;;;4.03;3.57;;;9.60;99.90;;;;;;4884312;29;20462;-83
2021/12/01 08:17:05;;;;;;;6.03;5.53;;;9.70;99.90;;;;;;4883792;29;20483;-83
2021/12/01 08:19:31;;;;;;;6.83;4.73;;;9.70;99.90;;;;;;4884074;29;20823;-82
2021/12/01 08:21:59;;;;;;;5.20;4.80;;;9.60;99.90;;;;;;4884033;29;20455;-82
2021/12/01 08:24:26;;;;;;;4.53;4.13;;;9.60;99.90;;;;;;4881901;29;20879;-82
2021/12/01 08:26:53;;;;;;;3.80;3.30;;;9.60;99.90;;;;;;4881239;29;20476;-82
2021/12/01 08:29:20;;;;;;;4.80;3.97;;;9.70;99.90;;;;;;4880946;29;20475;-84
2021/12/01 08:31:47;;;;;;;5.40;4.90;;;9.70;99.90;;;;;;4882447;29;20957;-82
2021/12/01 08:34:13;;;;;;;3.93;3.53;;;9.80;99.90;;;;;;4883177;29;20483;-82
2021/12/01 08:36:40;;;;;;;3.67;3.13;;;9.80;99.90;;;;;;4882723;29;20949;-81
2021/12/01 08:39:08;;;;;;;3.80;2.70;;;9.80;99.90;;;;;;4883483;29;20456;-82
2021/12/01 08:41:35;;;;;;;5.00;3.37;;;9.90;99.90;;;;;;4883702;29;20889;-82
2021/12/01 08:44:02;;;;;;;4.40;3.30;;;9.90;99.90;;;;;;4884091;29;20456;-82
2021/12/01 08:46:29;;;;;;;4.40;3.03;;;9.90;99.90;;;;;;4883519;29;20468;-83
2021/12/01 08:48:56;;;;;;;4.13;2.67;;;10.00;99.90;;;;;;4883334;29;20479;-82
2021/12/01 08:51:23;;;;;;;4.10;2.93;;;10.00;99.90;;;;;;4883580;29;20463;-83
2021/12/01 08:53:49;;;;;;;4.80;3.40;;;9.90;99.90;;;;;;4882631;29;20488;-81
2021/12/01 08:56:17;;;;;;;5.40;4.90;;;9.90;99.90;;;;;;4880198;29;20463;-81
2021/12/01 08:58:44;;;;;;;7.53;6.93;;;9.90;99.90;;;;;;4881426;29;20498;-82
2021/12/01 09:01:11;;;;;;;11.00;10.10;;;9.90;99.90;;;;;;4882184;29;20460;-82
2021/12/01 09:03:38;;;;;;;22.53;21.23;;;9.80;99.90;;;;;;4885724;29;20466;-82
2021/12/01 09:06:05;;;;;;;35.87;34.37;;;9.70;99.90;;;;;;4884853;29;20455;-83
2021/12/01 09:08:31;;;;;;;67.30;64.83;;;9.70;99.90;;;;;;4885550;29;20502;-82
2021/12/01 09:11:00;;;;;;;130.97;126.20;;;9.60;99.90;;;;;;4885726;29;20983;-82
2021/12/01 09:13:31;;;;;;;116.23;111.87;;;9.50;99.90;;;;;;4885379;29;20479;-83
2021/12/01 09:15:58;;;;;;;122.53;118.33;;;9.60;99.90;;;;;;4884981;29;20456;-82
2021/12/01 09:18:27;;;;;;;114.93;110.93;;;9.40;99.90;;;;;;4886009;29;20479;-83
2021/12/01 09:20:54;;;;;;;179.87;173.70;;;9.40;99.90;;;;;;4885836;29;20558;-83
2021/12/01 09:23:21;;;;;;;246.23;237.83;;;9.30;99.90;;;;;;4886147;29;20460;-82
2021/12/01 09:25:48;;;;;;;172.73;167.10;;;9.30;99.90;;;;;;4886264;29;20460;-83
2021/12/01 09:28:17;;;;;;;203.77;196.80;;;9.40;99.90;;;;;;4885872;29;20479;-82
2021/12/01 09:30:46;;;;;;;282.90;272.73;;;9.50;99.90;;;;;;4884773;29;20460;-82
2021/12/01 09:33:14;;;;;;;232.47;224.47;;;9.50;99.90;;;;;;4885039;29;20498;-83
2021/12/01 09:35:40;;;;;;;186.13;179.93;;;9.60;99.90;;;;;;4884679;29;20866;-82
2021/12/01 09:38:08;;;;;;;199.50;192.50;;;9.60;99.90;;;;;;4885115;29;21019;-82
2021/12/01 09:40:35;;;;;;;157.90;152.30;;;9.60;99.90;;;;;;4885277;29;20875;-82
2021/12/01 09:43:02;;;;;;;139.13;134.43;;;9.60;99.90;;;;;;4884307;29;20465;-84
2021/12/01 09:45:29;;;;;;;74.07;71.23;;;9.70;99.90;;;;;;4884796;29;20459;-82
2021/12/01 09:47:57;;;;;;;76.60;73.63;;;9.80;99.90;;;;;;4886172;29;20487;-82
2021/12/01 09:50:24;;;;;;;66.30;63.57;;;9.80;99.90;;;;;;4885115;29;20463;-83
2021/12/01 09:52:51;;;;;;;54.80;52.40;;;9.90;99.90;;;;;;4885594;29;20536;-82
2021/12/01 09:55:19;;;;;;;30.93;29.73;;;9.90;99.90;;;;;;4884831;29;20462;-82
2021/12/01 09:58:02;;;;;;;30.50;28.70;;;9.90;99.90;;;;;;4884842;29;20498;-82
2021/12/01 10:00:30;;;;;;;29.50;28.00;;;9.90;99.90;;;;;;4886029;29;20460;-81
2021/12/01 10:02:58;;;;;;;40.00;38.30;;;10.00;99.90;;;;;;4885389;29;20835;-82
2021/12/01 10:06:00;;;;;;;30.13;28.83;;;9.90;99.90;;;;;;4885028;29;20458;-82
2021/12/01 10:08:30;;;;;;;23.13;22.13;;;10.00;99.90;;;;;;4884648;29;20558;-82
2021/12/01 10:10:58;;;;;;;23.67;22.57;;;10.10;99.90;;;;;;4884896;29;20461;-82
2021/12/01 10:13:28;;;;;;;18.63;17.63;;;9.90;99.90;;;;;;4874996;29;21014;-82
2021/12/01 10:15:57;;;;;;;15.60;14.73;;;9.90;99.90;;;;;;4884830;29;20467;-81
2021/12/01 10:18:26;;;;;;;14.13;13.43;;;10.00;99.90;;;;;;4873355;29;20491;-81
2021/12/01 10:21:06;;;;;;;13.30;12.60;;;10.00;99.90;;;;;;4866445;29;20467;-81
2021/12/01 10:23:35;;;;;;;13.00;12.30;;;10.00;99.90;;;;;;4865446;29;20555;-81
2021/12/01 10:26:18;;;;;;;14.17;13.47;;;10.00;99.90;;;;;;4866338;29;20559;-82
2021/12/01 10:28:47;;;;;;;12.13;11.43;;;10.00;99.90;;;;;;4866534;29;20488;-81
2021/12/01 10:31:15;;;;;;;13.80;13.10;;;10.00;99.90;;;;;;4865818;29;20487;-81
2021/12/01 10:33:43;;;;;;;15.80;15.07;;;10.00;99.90;;;;;;4865995;29;20484;-81
2021/12/01 10:36:12;;;;;;;11.13;10.53;;;10.00;99.90;;;;;;4865487;29;20563;-81
2021/12/01 10:38:43;;;;;;;23.97;22.97;;;10.20;99.90;;;;;;4866688;29;20491;-81
2021/12/01 10:41:12;;;;;;;19.73;18.73;;;10.30;99.90;;;;;;4865954;29;20483;-81
2021/12/01 10:43:42;;;;;;;15.97;15.17;;;10.40;99.90;;;;;;4866333;29;20463;-81
2021/12/01 10:46:11;;;;;;;21.73;20.73;;;10.50;99.90;;;;;;4867000;29;20453;-81
2021/12/01 10:48:40;;;;;;;15.57;14.83;;;10.40;99.90;;;;;;4867057;29;20480;-82
2021/12/01 10:51:10;;;;;;;14.37;13.67;;;10.40;99.90;;;;;;4865860;29;20462;-81
2021/12/01 10:53:37;;;;;;;14.20;13.50;;;10.50;99.90;;;;;;4866197;29;20490;-81
2021/12/01 10:56:07;;;;;;;18.40;17.50;;;10.50;99.90;;;;;;4865775;29;20475;-82
2021/12/01 10:58:36;;;;;;;16.27;15.37;;;10.40;99.90;;;;;;4865866;29;20484;-82
2021/12/01 11:01:06;;;;;;;15.60;14.80;;;10.40;99.90;;;;;;4866353;29;20483;-81
2021/12/01 11:03:35;;;;;;;18.30;17.30;;;10.40;99.90;;;;;;4866542;29;20456;-82
2021/12/01 11:06:18;;;;;;;19.00;18.10;;;10.40;99.90;;;;;;4866010;29;20467;-81
2021/12/01 11:08:48;;;;;;;23.47;22.47;;;10.30;99.90;;;;;;4865868;29;20560;-81
2021/12/01 11:11:19;;;;;;;26.17;25.07;;;10.20;99.90;;;;;;4865744;29;20461;-81
2021/12/01 11:13:48;;;;;;;33.20;31.80;;;10.20;99.90;;;;;;4866075;29;20484;-81
2021/12/01 11:16:17;;;;;;;66.43;64.03;;;10.30;99.90;;;;;;4865351;29;20468;-81
2021/12/01 11:18:47;;;;;;;61.00;58.80;;;10.30;99.90;;;;;;4866518;29;20544;-81
2021/12/01 11:21:17;;;;;;;50.30;48.40;;;10.30;99.90;;;;;;4865604;29;20503;-81
2021/12/01 11:23:46;;;;;;;39.47;37.90;;;10.40;99.90;;;;;;4866104;29;20548;-82
2021/12/01 11:26:14;;;;;;;29.47;28.27;;;10.50;99.90;;;;;;4865924;29;20535;-82
2021/12/01 11:28:44;;;;;;;36.80;35.20;;;10.60;99.90;;;;;;4864934;29;20475;-81
2021/12/01 11:31:14;;;;;;;30.80;29.43;;;10.70;99.90;;;;;;4865049;29;20864;-82
2021/12/01 11:33:44;;;;;;;22.83;21.83;;;10.70;99.90;;;;;;4865837;29;21004;-82
2021/12/01 11:36:12;;;;;;;27.00;25.70;;;10.70;99.90;;;;;;4865326;29;20464;-81
2021/12/01 11:38:41;;;;;;;26.60;25.50;;;10.60;99.90;;;;;;4865893;29;20480;-81
2021/12/01 11:41:09;;;;;;;46.97;45.17;;;10.50;99.90;;;;;;4865773;29;20468;-81
2021/12/01 11:43:38;;;;;;;127.07;122.87;;;10.30;99.90;;;;;;4864636;29;20456;-81
2021/12/01 11:46:07;;;;;;;195.23;188.83;;;10.10;99.90;;;;;;4863997;29;20493;-82
2021/12/01 11:48:38;;;;;;;188.07;181.77;;;9.90;99.90;;;;;;4864086;29;20555;-81
2021/12/01 11:51:13;;;;;;;262.93;253.97;;;9.80;99.90;;;;;;4865331;29;20460;-81
2021/12/01 11:53:43;;;;;;;362.93;349.13;;;9.70;99.90;;;;;;4864262;29;20480;-81
2021/12/01 11:56:17;;;;;;;402.47;386.53;;;9.70;99.90;;;;;;4864836;29;20460;-82
2021/12/01 11:58:59;;;;;;;376.97;362.30;;;9.60;99.90;;;;;;4864770;29;20921;-82
2021/12/01 12:01:54;;;;;;;397.30;381.83;;;9.60;99.90;;;;;;4868106;29;20464;-82
2021/12/01 12:04:26;;;;;;;559.83;532.23;;;9.50;99.90;;;;;;4864660;29;20467;-82
2021/12/01 12:06:54;;;;;;;484.63;465.37;;;9.20;99.90;;;;;;4872325;29;20857;-82
2021/12/01 12:09:23;;;;;;;623.97;592.77;;;9.10;99.90;;;;;;4878470;29;20468;-82
2021/12/01 12:11:52;;;;;;;573.50;549.70;;;9.00;99.90;;;;;;4868566;29;20457;-81
2021/12/01 12:14:21;;;;;;;521.23;500.97;;;8.80;99.90;;;;;;4865371;29;20575;-79
2021/12/01 12:17:10;;;;;;;549.33;526.63;;;8.60;99.90;;;;;;4877403;29;20886;-79
2021/12/01 12:20:02;;;;;;;488.70;470.80;;;8.60;99.90;;;;;;4882351;29;20447;-82
2021/12/01 12:22:34;;;;;;;578.37;553.70;;;8.60;99.90;;;;;;4879158;29;20550;-82
2021/12/01 12:25:05;;;;;;;561.90;538.53;;;8.60;99.90;;;;;;4880634;29;20471;-81
2021/12/01 12:27:39;;;;;;;583.00;557.80;;;8.60;99.90;;;;;;4881304;29;20889;-80
2021/12/01 12:30:12;;;;;;;585.00;560.07;;;8.50;99.90;;;;;;4881343;29;20466;-81
2021/12/01 12:32:42;;;;;;;599.80;572.77;;;8.60;99.90;;;;;;4880977;29;20478;-82
2021/12/01 12:35:12;;;;;;;559.57;536.40;;;8.60;99.90;;;;;;4868241;29;20928;-84
2021/12/01 12:37:39;;;;;;;580.73;555.07;;;8.70;99.90;;;;;;4866741;29;20476;-82